UBBB/BAK METAR and TAF weather

Enter ICAO airport designator
Station Type Date Time Source
UBBB METAR 2021/01/27 14:00 UTC NOAA

UBBB 271400Z 16014KT 9999 SCT009 08/07 Q1015 R88/CLRD// NOSIG


Station Type Date Time Source
UBBB Decoded METAR 2021/01/27 14:00 UTC NOAA

Baku / Bine Airport, Azerbaijan (UBBB) 40-27N 050-04E -1M
Jan 27, 2021 - 09:00 AM EST / 2021.01.27 1400 UTC
Wind: from the SSE (160 degrees) at 16 MPH (14 KT):0
Visibility: greater than 7 mile(s):0
Sky conditions: partly cloudy
Temperature: 46 F (8 C)
Dew Point: 44 F (7 C)
Relative Humidity: 93%
Pressure (altimeter): 29.97 in. Hg (1015 hPa)
ob: UBBB 271400Z 16014KT 9999 SCT009 08/07 Q1015 R88/CLRD// NOSIG
cycle: 14

Station Type Date Time Source
UBBB TAF 2021/01/27 12:15 UTC NOAA

TAF TAF UBBB 271112Z 2712/2812 17018G28KT 9999 SCT015 BKN030 TX09/2712Z TNM01/2802Z
TEMPO 2712/2724 19024G34KT BKN010

Example: see airport list